createdAt,value
2022-11-27T07:58:16.666Z,84.03
2022-11-27T08:03:19.638Z,84.28
2022-11-27T08:08:22.575Z,84.23
2022-11-27T08:13:25.795Z,84.26
2022-11-27T08:18:29.356Z,84.39
2022-11-27T08:23:32.496Z,84.53
2022-11-27T08:28:37.114Z,84.46
2022-11-27T08:33:40.899Z,84.74
2022-11-27T08:38:43.882Z,84.62
2022-11-27T08:43:47.593Z,84.88
2022-11-27T08:48:51.783Z,85.29
2022-11-27T08:53:56.652Z,85.17
2022-11-27T08:59:00.460Z,85.29
2022-11-27T09:04:04.289Z,85.22
2022-11-27T09:09:08.320Z,85.31
2022-11-27T09:14:13.365Z,85.68
2022-11-27T09:19:18.018Z,85.46
2022-11-27T09:24:23.358Z,85.49
2022-11-27T09:29:27.756Z,85.65
2022-11-27T09:34:36.035Z,85.60
2022-11-27T09:39:40.508Z,85.60
2022-11-27T09:44:59.717Z,85.54
2022-11-27T09:50:21.440Z,85.56
2022-11-27T09:55:37.653Z,85.57
2022-11-27T10:00:41.733Z,85.63
2022-11-27T10:06:11.282Z,85.64
2022-11-27T10:11:29.724Z,85.67
2022-11-27T10:16:44.588Z,85.68
2022-11-27T10:21:59.716Z,85.76
2022-11-27T10:27:21.511Z,85.79
2022-11-27T10:32:54.729Z,85.77
2022-11-27T10:38:09.934Z,85.86
2022-11-27T10:43:20.170Z,86.04
2022-11-27T10:48:23.833Z,86.02
2022-11-27T10:53:31.872Z,86.09
2022-11-27T10:58:37.406Z,86.12
2022-11-27T11:03:40.641Z,86.29
2022-11-27T11:08:43.539Z,86.25
2022-11-27T11:13:47.678Z,86.23
2022-11-27T11:18:54.304Z,86.25
2022-11-27T11:24:35.545Z,86.24
2022-11-27T11:29:46.766Z,86.26
2022-11-27T11:35:00.667Z,86.31
2022-11-27T11:40:14.729Z,86.37
2022-11-27T11:45:21.629Z,86.38
2022-11-27T11:50:42.387Z,86.38
2022-11-27T11:56:27.670Z,86.40
2022-11-27T12:01:56.645Z,86.42
2022-11-27T12:07:30.766Z,86.39
2022-11-27T12:13:02.935Z,86.38
2022-11-27T12:18:26.350Z,86.43
2022-11-27T12:24:03.584Z,86.50
2022-11-27T12:29:30.868Z,86.50
2022-11-27T12:35:09.227Z,86.50
2022-11-27T12:40:43.557Z,86.50
2022-11-27T12:45:59.733Z,86.54
2022-11-27T12:51:11.317Z,86.51
2022-11-27T12:56:25.195Z,86.56
2022-11-27T13:01:36.588Z,86.55
2022-11-27T13:07:12.019Z,86.58
2022-11-27T13:12:26.450Z,86.59
2022-11-27T13:17:44.156Z,86.61
2022-11-27T13:22:48.779Z,86.61
2022-11-27T13:27:54.324Z,86.61
2022-11-27T13:33:01.897Z,86.64
2022-11-27T13:38:17.774Z,86.63
2022-11-27T13:43:42.701Z,86.64
2022-11-27T13:49:04.039Z,86.67
2022-11-27T13:54:25.940Z,86.66
2022-11-27T13:59:36.400Z,86.64
2022-11-27T14:04:56.387Z,86.66
2022-11-27T14:10:17.921Z,86.68
2022-11-27T14:15:26.662Z,86.70
2022-11-27T14:20:35.042Z,86.74
2022-11-27T14:25:38.805Z,86.75
2022-11-27T14:30:59.938Z,86.78
2022-11-27T14:36:07.263Z,86.79
2022-11-27T14:41:18.242Z,86.81
2022-11-27T14:46:22.922Z,86.81
2022-11-27T14:51:33.725Z,86.82
2022-11-27T14:56:42.722Z,86.86
2022-11-27T15:02:06.567Z,86.81
2022-11-27T15:07:25.705Z,86.82
2022-11-27T15:12:34.452Z,86.86
2022-11-27T15:17:40.105Z,86.92
2022-11-27T15:22:56.395Z,87.02
2022-11-27T15:28:00.165Z,87.08
2022-11-27T15:33:03.136Z,87.15
2022-11-27T15:38:11.380Z,87.11
2022-11-27T15:43:16.627Z,87.13
2022-11-27T15:48:21.573Z,87.21
2022-11-27T15:53:24.630Z,87.15
2022-11-27T15:58:27.595Z,87.18
2022-11-27T16:03:30.540Z,87.19
2022-11-27T16:08:34.096Z,87.27
2022-11-27T16:13:37.360Z,87.33
2022-11-27T16:18:40.380Z,87.42
2022-11-27T16:23:43.862Z,87.44
2022-11-27T16:28:46.902Z,87.50
2022-11-27T16:33:49.987Z,87.56
2022-11-27T16:38:54.757Z,87.67
2022-11-27T16:43:57.798Z,87.68
2022-11-27T16:49:01.577Z,87.68
2022-11-27T16:54:08.679Z,87.68
2022-11-27T16:59:15.580Z,87.79
2022-11-27T17:04:20.497Z,87.87
2022-11-27T17:09:26.109Z,87.89
2022-11-27T17:14:29.127Z,87.96
2022-11-27T17:19:32.529Z,87.86
2022-11-27T17:24:36.211Z,87.85
2022-11-27T17:29:42.182Z,87.92
2022-11-27T17:34:46.866Z,87.94
2022-11-27T17:39:49.855Z,87.97
2022-11-27T17:44:52.870Z,88.00
2022-11-27T17:49:55.904Z,87.99
2022-11-27T17:54:59.218Z,88.04
2022-11-27T18:00:02.284Z,88.00
2022-11-27T18:05:06.356Z,88.01
2022-11-27T18:10:09.944Z,88.01
2022-11-27T18:15:14.289Z,88.00
2022-11-27T18:20:17.797Z,87.99
2022-11-27T18:25:21.139Z,87.99
2022-11-27T18:30:25.888Z,88.00
2022-11-27T18:35:29.313Z,88.00
2022-11-27T18:40:36.237Z,87.99
2022-11-27T18:45:42.639Z,87.97
2022-11-27T18:50:48.200Z,88.01
2022-11-27T18:55:52.834Z,88.03
2022-11-27T19:00:57.747Z,88.05
2022-11-27T19:06:03.279Z,88.06
2022-11-27T19:11:17.974Z,88.08
2022-11-27T19:16:25.424Z,88.08
2022-11-27T19:21:32.781Z,88.09
2022-11-27T19:26:37.912Z,88.09
2022-11-27T19:31:43.656Z,88.13
2022-11-27T19:36:47.717Z,88.07
2022-11-27T19:41:50.835Z,88.07
2022-11-27T19:46:54.282Z,88.11
2022-11-27T19:52:00.481Z,88.21
2022-11-27T19:57:04.641Z,88.20
2022-11-27T20:02:14.797Z,88.23
2022-11-27T20:07:20.293Z,88.21
2022-11-27T20:12:25.070Z,88.24
2022-11-27T20:17:28.666Z,88.18
2022-11-27T20:22:32.798Z,88.21
2022-11-27T20:27:37.167Z,88.20
2022-11-27T20:32:40.118Z,88.21
2022-11-27T20:37:43.002Z,88.29
2022-11-27T20:42:46.729Z,88.25
2022-11-27T20:47:49.680Z,88.22
2022-11-27T20:52:52.576Z,88.53
2022-11-27T20:57:55.707Z,88.41
2022-11-27T21:02:58.667Z,88.46
2022-11-27T21:08:01.853Z,88.49
2022-11-27T21:13:04.917Z,88.58
2022-11-27T21:18:07.791Z,88.85
2022-11-27T21:23:10.693Z,88.71
2022-11-27T21:28:13.794Z,88.83
2022-11-27T21:33:16.685Z,88.96
2022-11-27T21:38:19.580Z,88.97
2022-11-27T21:43:23.001Z,88.94
2022-11-27T21:48:25.843Z,88.99
2022-11-27T21:53:30.844Z,88.78
2022-11-27T21:58:34.869Z,88.89
2022-11-27T22:03:42.269Z,88.88
2022-11-27T22:08:49.383Z,89.03
2022-11-27T22:13:56.262Z,89.03
2022-11-27T22:19:01.006Z,89.18
2022-11-27T22:24:04.180Z,89.42
2022-11-27T22:29:07.142Z,89.46
2022-11-27T22:34:10.119Z,89.69
2022-11-27T22:39:21.847Z,89.71
2022-11-27T22:44:32.899Z,89.48
2022-11-27T22:49:35.985Z,89.49
2022-11-27T22:54:39.036Z,89.65
2022-11-27T22:59:42.271Z,89.68
2022-11-27T23:04:45.396Z,89.69
2022-11-27T23:09:48.454Z,89.59
2022-11-27T23:14:51.496Z,89.62
2022-11-27T23:19:54.356Z,89.57
2022-11-27T23:24:57.307Z,89.52
2022-11-27T23:30:00.190Z,89.49
2022-11-27T23:35:03.272Z,89.53
2022-11-27T23:40:07.650Z,89.61
2022-11-27T23:45:11.516Z,89.57
2022-11-27T23:50:14.520Z,89.47
2022-11-27T23:55:17.550Z,89.46
